Time;durP1;ratioP1;P1;durP2;ratioP2;P2;SDS_P1;SDS_P2;PMS_P1;PMS_P2;Temp;Humidity;BMP_temperature;BMP_pressure;BME280_temperature;BME280_humidity;BME280_pressure;Samples;Min_cycle;Max_cycle;Signal;HPM_P1;HPM_P2
2021/03/04 00:02:06;;;;;;;56.40;25.08;;;;;;;7.44;56.63;101050.91;5073768;28;20315;-69
2021/03/04 00:04:31;;;;;;;52.70;27.98;;;;;;;7.49;56.31;101042.69;5071826;28;20036;-69
2021/03/04 00:06:57;;;;;;;62.78;28.63;;;;;;;7.37;57.04;101047.03;5073868;28;20086;-68
2021/03/04 00:09:22;;;;;;;66.40;29.60;;;;;;;7.23;57.16;101040.09;5073306;28;20083;-73
2021/03/04 00:11:48;;;;;;;59.17;29.58;;;;;;;7.13;57.22;101044.31;5072015;28;20039;-73
2021/03/04 00:14:13;;;;;;;61.97;27.20;;;;;;;7.12;57.96;101039.16;5105259;28;20028;-73
2021/03/04 00:16:39;;;;;;;61.50;28.02;;;;;;;7.17;56.80;101042.31;5073743;28;20038;-73
2021/03/04 00:19:04;;;;;;;68.28;28.80;;;;;;;7.11;57.82;101030.44;5073595;28;20062;-73
2021/03/04 00:21:30;;;;;;;60.45;26.50;;;;;;;7.15;57.49;101031.88;5068645;28;20037;-73
2021/03/04 00:23:55;;;;;;;62.67;27.63;;;;;;;7.22;56.93;101035.78;5074342;28;20064;-74
2021/03/04 00:26:21;;;;;;;65.10;27.75;;;;;;;7.29;56.39;101029.16;5068148;28;20032;-74
2021/03/04 00:28:46;;;;;;;58.92;27.33;;;;;;;7.18;57.02;101015.03;5071264;28;20025;-69
2021/03/04 00:31:12;;;;;;;57.53;26.35;;;;;;;7.25;56.60;101029.44;5068842;28;20310;-73
2021/03/04 00:33:37;;;;;;;65.28;27.58;;;;;;;7.26;56.40;101023.22;5073829;28;20088;-73
2021/03/04 00:36:03;;;;;;;63.63;28.67;;;;;;;6.91;57.18;100983.59;5069241;28;20070;-73
2021/03/04 00:38:28;;;;;;;65.07;27.30;;;;;;;7.18;56.69;101012.38;5071769;28;20207;-73
2021/03/04 00:40:54;;;;;;;62.42;28.80;;;;;;;7.11;56.92;101019.88;5069197;28;20215;-69
2021/03/04 00:43:19;;;;;;;72.28;30.67;;;;;;;7.11;56.83;101013.78;5072481;28;20095;-69
2021/03/04 00:45:44;;;;;;;61.40;28.05;;;;;;;7.12;57.15;101005.75;5066219;28;20044;-69
2021/03/04 00:48:11;;;;;;;56.53;27.15;;;;;;;7.10;56.27;101005.03;5072047;28;20256;-69
2021/03/04 00:50:37;;;;;;;55.83;27.27;;;;;;;6.91;57.25;101008.13;5071246;28;20044;-68
2021/03/04 00:53:03;;;;;;;63.63;29.05;;;;;;;6.78;58.02;101002.03;5064254;28;20024;-68
2021/03/04 00:55:30;;;;;;;60.65;26.83;;;;;;;6.34;58.46;100995.41;5076134;28;20070;-68
2021/03/04 00:57:55;;;;;;;58.38;25.83;;;;;;;6.20;59.12;100997.28;5071137;28;20115;-73
2021/03/04 01:00:21;;;;;;;60.63;26.55;;;;;;;6.00;60.22;100998.59;5072617;28;20016;-68
2021/03/04 01:02:47;;;;;;;67.97;29.23;;;;;;;5.95;60.92;100984.94;5068898;28;20081;-68
2021/03/04 01:05:13;;;;;;;80.65;32.05;;;;;;;5.80;61.98;100978.88;5072819;28;20238;-75
2021/03/04 01:07:38;;;;;;;56.63;28.48;;;;;;;5.89;62.40;100980.91;5068657;28;20051;-73
2021/03/04 01:10:08;;;;;;;68.68;31.95;;;;;;;6.18;61.82;100978.13;5072982;28;20067;-73
2021/03/04 01:12:34;;;;;;;80.53;36.92;;;;;;;6.02;62.25;100973.91;5065770;28;20222;-71
2021/03/04 01:14:59;;;;;;;67.97;33.35;;;;;;;5.88;62.67;100970.47;5073210;28;20051;-71
2021/03/04 01:17:25;;;;;;;85.78;38.42;;;;;;;5.73;63.26;100959.19;5068941;28;20025;-69
2021/03/04 01:19:50;;;;;;;77.20;35.17;;;;;;;5.92;63.20;100966.72;5071446;28;20048;-68
2021/03/04 01:22:16;;;;;;;71.80;33.63;;;;;;;5.81;63.44;100970.03;5069828;28;20028;-69
2021/03/04 01:24:41;;;;;;;66.00;30.70;;;;;;;5.82;63.27;100968.25;5066915;28;20043;-69
2021/03/04 01:27:07;;;;;;;60.42;29.58;;;;;;;5.96;62.52;100953.28;5070693;28;20062;-69
2021/03/04 01:29:32;;;;;;;65.80;30.02;;;;;;;6.17;61.27;100953.63;5067672;28;20040;-68
2021/03/04 01:31:58;;;;;;;64.70;30.08;;;;;;;6.33;60.69;100953.44;5065946;28;20219;-69
2021/03/04 01:34:23;;;;;;;66.43;32.33;;;;;;;6.45;60.74;100963.13;5069962;28;20265;-68
2021/03/04 01:36:49;;;;;;;75.72;34.42;;;;;;;6.30;60.13;100953.66;5067793;28;20040;-68
2021/03/04 01:39:14;;;;;;;78.28;34.72;;;;;;;6.25;60.84;100938.19;5067744;28;20326;-69
2021/03/04 01:41:40;;;;;;;74.65;34.30;;;;;;;6.28;60.41;100932.72;5066097;28;20036;-69
2021/03/04 01:44:05;;;;;;;79.32;35.15;;;;;;;6.38;60.33;100938.19;5069169;28;20095;-69
2021/03/04 01:46:31;;;;;;;90.18;38.20;;;;;;;6.46;59.78;100940.28;5068626;28;20116;-68
2021/03/04 01:48:57;;;;;;;83.05;35.22;;;;;;;6.38;59.99;100935.53;5071198;28;20037;-68
2021/03/04 01:51:23;;;;;;;81.00;35.40;;;;;;;6.41;59.98;100937.97;5068066;28;20066;-69
2021/03/04 01:53:49;;;;;;;78.03;35.17;;;;;;;6.63;59.35;100945.19;5070178;28;20059;-68
2021/03/04 01:56:14;;;;;;;104.93;37.92;;;;;;;6.58;59.35;100931.53;5069512;28;20037;-68
2021/03/04 01:58:40;;;;;;;84.10;35.10;;;;;;;6.55;59.59;100937.00;5069427;28;20052;-69
2021/03/04 02:01:05;;;;;;;90.15;35.85;;;;;;;6.57;59.85;100940.38;5067044;28;20029;-69
2021/03/04 02:03:32;;;;;;;71.15;33.17;;;;;;;6.72;57.46;100923.50;5073255;28;20045;-68
2021/03/04 02:05:57;;;;;;;75.47;33.25;;;;;;;6.51;58.26;100927.63;5068209;28;20020;-69
2021/03/04 02:08:47;;;;;;;73.72;33.70;;;;;;;6.30;58.29;100925.56;5065011;28;20025;-69
2021/03/04 02:11:23;;;;;;;68.50;31.50;;;;;;;6.21;58.80;100923.53;5069488;28;20067;-69
2021/03/04 02:14:08;;;;;;;78.70;34.28;;;;;;;6.12;59.58;100931.19;5069584;28;20247;-68
2021/03/04 02:16:37;;;;;;;73.88;32.72;;;;;;;6.09;59.55;100922.56;5061382;28;20037;-69
2021/03/04 02:19:10;;;;;;;77.95;32.85;;;;;;;6.01;59.24;100926.69;5071580;28;20040;-69
2021/03/04 02:22:20;;;;;;;71.25;33.00;;;;;;;5.90;60.22;100921.31;5069494;28;20037;-68
2021/03/04 02:25:04;;;;;;;76.28;31.23;;;;;;;5.73;60.35;100920.63;5066167;28;20040;-71
2021/03/04 02:27:31;;;;;;;79.45;29.65;;;;;;;5.57;60.47;100924.38;5095736;28;20226;-71
2021/03/04 02:30:01;;;;;;;76.05;31.38;;;;;;;5.53;60.58;100920.25;5069071;28;20036;-71
2021/03/04 02:32:29;;;;;;;75.65;30.02;;;;;;;5.54;60.47;100919.31;5058246;28;20055;-68
2021/03/04 02:35:02;;;;;;;74.57;32.35;;;;;;;5.62;59.61;100919.66;5067863;28;20087;-69
2021/03/04 02:37:30;;;;;;;65.22;29.70;;;;;;;5.66;59.15;100921.97;5059180;28;20091;-69
2021/03/04 02:39:58;;;;;;;72.97;30.35;;;;;;;5.67;59.26;100920.19;5069023;28;20024;-71
2021/03/04 02:42:24;;;;;;;71.60;29.85;;;;;;;5.51;60.00;100919.50;5062914;28;20024;-68
2021/03/04 02:44:56;;;;;;;67.80;31.10;;;;;;;5.42;60.04;100923.59;5072126;28;20032;-68
2021/03/04 02:47:22;;;;;;;75.15;30.75;;;;;;;5.33;59.92;100916.31;5065341;28;20055;-71
2021/03/04 02:49:48;;;;;;;79.97;31.95;;;;;;;5.18;61.02;100917.28;5072853;28;20024;-71
2021/03/04 02:52:17;;;;;;;71.47;29.88;;;;;;;5.28;60.78;100913.13;5069166;28;20050;-71
2021/03/04 02:54:43;;;;;;;90.75;35.65;;;;;;;5.27;61.73;100920.19;5069576;28;20024;-68
2021/03/04 02:57:10;;;;;;;76.47;33.47;;;;;;;4.66;62.17;100813.84;5068241;28;20036;-68
2021/03/04 02:59:38;;;;;;;84.03;37.60;;;;;;;5.48;61.78;100914.47;5070185;28;20230;-68
2021/03/04 03:02:05;;;;;;;98.82;37.75;;;;;;;5.33;61.25;100885.63;5069626;28;20028;-68
2021/03/04 03:04:34;;;;;;;94.72;35.17;;;;;;;5.69;60.98;100919.13;5069334;28;20036;-69
2021/03/04 03:07:01;;;;;;;69.20;31.20;;;;;;;5.74;60.18;100919.66;5065021;28;20032;-69
2021/03/04 03:09:27;;;;;;;63.08;28.55;;;;;;;5.80;59.85;100920.22;5065237;28;20024;-68
2021/03/04 03:11:53;;;;;;;66.45;29.23;;;;;;;5.82;58.45;100905.16;5066500;28;20028;-69
2021/03/04 03:14:19;;;;;;;69.93;30.52;;;;;;;5.92;57.71;100914.16;5070535;28;20306;-68
2021/03/04 03:16:45;;;;;;;65.10;29.02;;;;;;;5.84;57.83;100916.44;5066105;28;20072;-69
2021/03/04 03:19:11;;;;;;;63.53;29.70;;;;;;;5.76;58.55;100909.91;5071087;28;20047;-68
2021/03/04 03:21:37;;;;;;;70.15;29.80;;;;;;;5.72;58.46;100908.41;5068421;28;20025;-73
2021/03/04 03:24:02;;;;;;;76.15;29.90;;;;;;;5.65;58.53;100906.31;5070519;28;20028;-75
2021/03/04 03:26:28;;;;;;;62.25;28.88;;;;;;;5.51;59.15;100904.59;5063401;28;20295;-75
2021/03/04 03:28:53;;;;;;;59.80;27.83;;;;;;;5.45;59.10;100899.75;5070189;28;20271;-70
2021/03/04 03:31:21;;;;;;;64.47;26.92;;;;;;;5.35;59.55;100909.16;5065746;28;20331;-70
2021/03/04 03:33:46;;;;;;;60.63;27.90;;;;;;;5.20;59.90;100895.25;5066225;28;20100;-70
2021/03/04 03:36:13;;;;;;;58.70;25.50;;;;;;;5.14;59.77;100904.34;5068050;28;20033;-70
2021/03/04 03:38:40;;;;;;;58.75;25.98;;;;;;;5.17;59.92;100899.84;5065814;28;20448;-75
2021/03/04 03:41:06;;;;;;;53.00;25.52;;;;;;;5.15;59.10;100899.94;5067816;28;20104;-75
2021/03/04 03:43:33;;;;;;;66.68;28.27;;;;;;;5.14;59.34;100900.88;5065221;28;20059;-75
2021/03/04 03:45:59;;;;;;;55.65;25.63;;;;;;;5.05;60.04;100889.19;5067464;28;20020;-75
2021/03/04 03:48:27;;;;;;;56.47;25.88;;;;;;;5.11;59.21;100901.06;5068772;28;20020;-75
2021/03/04 03:50:55;;;;;;;52.42;24.30;;;;;;;5.14;59.18;100898.25;5070263;28;20024;-75
2021/03/04 03:53:21;;;;;;;53.90;25.63;;;;;;;5.09;59.64;100903.78;5082948;28;20117;-71
2021/03/04 03:55:53;;;;;;;51.42;23.90;;;;;;;5.02;60.32;100902.50;5069187;28;20025;-71
2021/03/04 03:58:24;;;;;;;58.83;24.88;;;;;;;4.91;60.25;100904.13;5070460;28;20040;-71
2021/03/04 04:00:54;;;;;;;50.22;24.85;;;;;;;4.78;60.82;100904.91;5065788;28;20024;-70
2021/03/04 04:03:20;;;;;;;58.45;25.38;;;;;;;4.73;61.04;100912.22;5070834;28;20040;-71
2021/03/04 04:05:45;;;;;;;53.35;24.75;;;;;;;4.85;60.34;100907.16;5065597;28;20041;-70
2021/03/04 04:08:12;;;;;;;65.28;26.65;;;;;;;4.92;59.83;100903.19;5063432;28;20025;-71
2021/03/04 04:10:38;;;;;;;55.38;24.50;;;;;;;4.91;59.66;100891.84;5067943;28;20155;-71
2021/03/04 04:13:03;;;;;;;63.63;26.15;;;;;;;4.85;60.33;100884.38;5055073;28;20315;-71
2021/03/04 04:15:30;;;;;;;59.03;24.75;;;;;;;4.94;59.79;100877.69;5070224;28;20075;-70
2021/03/04 04:18:02;;;;;;;47.97;23.73;;;;;;;4.94;59.77;100889.03;5066200;28;20092;-71
2021/03/04 04:20:28;;;;;;;57.33;25.20;;;;;;;4.93;60.14;100889.13;5063883;28;20034;-70
2021/03/04 04:22:56;;;;;;;52.22;26.35;;;;;;;4.98;60.08;100889.69;5066488;28;20100;-71
2021/03/04 04:25:23;;;;;;;56.28;25.30;;;;;;;4.94;60.02;100889.03;5069618;28;20062;-71
2021/03/04 04:27:50;;;;;;;61.33;27.90;;;;;;;4.92;60.87;100888.28;5065159;28;20271;-75
2021/03/04 04:30:16;;;;;;;82.07;33.65;;;;;;;4.89;61.79;100880.59;5071974;28;20036;-73
2021/03/04 04:32:41;;;;;;;104.22;39.83;;;;;;;4.96;61.98;100878.44;5068315;28;20040;-69
2021/03/04 04:35:07;;;;;;;99.53;40.80;;;;;;;5.16;61.32;100877.16;5072641;28;20025;-73
2021/03/04 04:37:33;;;;;;;87.43;37.65;;;;;;;5.08;60.90;100877.63;5067466;28;20336;-73
2021/03/04 04:39:58;;;;;;;71.63;31.63;;;;;;;4.96;61.23;100871.41;5069761;28;20039;-73
2021/03/04 04:42:24;;;;;;;69.20;28.20;;;;;;;5.13;60.90;100867.69;5068785;28;20348;-73
2021/03/04 04:44:50;;;;;;;74.72;34.03;;;;;;;5.13;61.00;100870.31;5073780;28;20044;-69
2021/03/04 04:47:15;;;;;;;84.95;35.78;;;;;;;4.93;61.90;100866.34;5067134;28;20033;-73
2021/03/04 04:49:40;;;;;;;73.10;40.25;;;;;;;5.23;61.02;100867.97;5073345;28;20044;-69
2021/03/04 04:52:06;;;;;;;70.85;34.92;;;;;;;5.22;59.64;100871.53;5066217;28;20025;-71
2021/03/04 04:54:32;;;;;;;63.13;27.27;;;;;;;5.20;58.04;100860.25;5075075;28;20271;-71
2021/03/04 04:56:57;;;;;;;61.38;27.27;;;;;;;5.04;58.75;100861.25;5063534;28;20350;-75
2021/03/04 04:59:23;;;;;;;64.47;28.63;;;;;;;4.84;58.55;100856.44;5071491;28;20329;-75
2021/03/04 05:01:48;;;;;;;93.68;40.15;;;;;;;4.67;60.36;100881.13;5067563;28;20037;-75
2021/03/04 05:04:13;;;;;;;82.47;37.35;;;;;;;4.65;60.93;100876.91;5071827;28;20059;-75
2021/03/04 05:06:39;;;;;;;208.55;81.20;;;;;;;4.83;60.40;100865.25;5069474;28;20024;-75
2021/03/04 05:09:05;;;;;;;360.85;131.68;;;;;;;4.72;61.17;100868.56;5073943;28;20131;-71
2021/03/04 05:11:30;;;;;;;403.23;143.13;;;;;;;4.77;60.82;100874.38;5064490;28;20033;-73
2021/03/04 05:13:56;;;;;;;251.68;89.10;;;;;;;4.86;60.58;100869.47;5075727;28;20033;-73
2021/03/04 05:16:21;;;;;;;97.95;39.15;;;;;;;4.69;61.61;100879.25;5067213;28;20353;-72
2021/03/04 05:18:47;;;;;;;56.28;25.85;;;;;;;4.56;61.92;100872.25;5068125;28;20219;-73
2021/03/04 05:21:12;;;;;;;58.13;26.55;;;;;;;4.65;61.61;100871.69;5067313;28;20047;-69
2021/03/04 05:23:38;;;;;;;74.93;28.33;;;;;;;4.61;62.14;100876.28;5068130;28;20219;-73
2021/03/04 05:26:03;;;;;;;79.65;34.70;;;;;;;4.70;61.78;100873.06;5069699;28;20037;-73
2021/03/04 05:28:28;;;;;;;89.85;39.33;;;;;;;4.78;61.23;100854.22;5063269;28;20028;-73
2021/03/04 05:30:54;;;;;;;74.57;27.45;;;;;;;4.81;61.02;100836.50;5072186;28;20029;-69
2021/03/04 05:33:20;;;;;;;64.40;24.00;;;;;;;5.07;60.62;100849.72;5066116;28;20049;-73
2021/03/04 05:35:46;;;;;;;71.95;25.75;;;;;;;5.31;60.20;100863.03;5050855;28;20313;-73
2021/03/04 05:38:11;;;;;;;55.58;19.80;;;;;;;5.35;60.18;100851.38;5066648;28;20036;-69
2021/03/04 05:40:37;;;;;;;54.40;15.98;;;;;;;5.34;60.07;100828.69;5068203;28;20130;-74
2021/03/04 05:43:03;;;;;;;38.38;15.00;;;;;;;5.50;59.70;100846.91;5064415;28;20025;-69
2021/03/04 05:45:30;;;;;;;38.80;15.93;;;;;;;5.41;60.04;100849.19;5071213;28;20120;-69
2021/03/04 05:47:56;;;;;;;59.38;23.52;;;;;;;5.23;60.95;100844.31;5064218;28;20028;-74
2021/03/04 05:50:26;;;;;;;58.92;25.60;;;;;;;5.24;61.01;100846.00;5063539;28;20029;-72
2021/03/04 05:52:58;;;;;;;45.70;21.45;;;;;;;5.23;61.33;100841.69;5068514;28;20044;-69
2021/03/04 05:55:25;;;;;;;73.43;29.92;;;;;;;5.36;61.29;100842.56;5066409;28;20103;-69
2021/03/04 05:57:51;;;;;;;48.50;19.92;;;;;;;5.24;61.38;100846.00;5069042;28;20020;-73
2021/03/04 06:00:17;;;;;;;41.35;18.80;;;;;;;5.02;62.47;100844.75;5068483;28;20028;-73
2021/03/04 06:02:45;;;;;;;43.05;20.67;;;;;;;4.98;62.56;100848.53;5071427;28;20087;-69
2021/03/04 06:05:13;;;;;;;64.28;22.10;;;;;;;5.02;63.01;100839.50;5071615;28;20036;-69
2021/03/04 06:07:43;;;;;;;42.60;19.63;;;;;;;5.21;62.72;100841.81;5070483;28;20044;-73
2021/03/04 06:10:09;;;;;;;50.28;22.02;;;;;;;5.48;62.03;100839.13;5071644;28;20147;-69
2021/03/04 06:12:35;;;;;;;52.45;20.52;;;;;;;5.83;61.14;100838.53;5066609;28;20058;-73
2021/03/04 06:15:00;;;;;;;42.35;20.60;;;;;;;5.95;60.97;100838.53;5072233;28;20322;-69
2021/03/04 06:17:26;;;;;;;52.72;22.63;;;;;;;6.04;60.58;100831.81;5066833;28;20281;-73
2021/03/04 06:19:54;;;;;;;59.25;25.52;;;;;;;6.46;59.61;100832.41;5063047;28;20063;-72
2021/03/04 06:22:38;;;;;;;52.38;22.77;;;;;;;6.55;59.55;100843.13;5055202;28;20021;-73
2021/03/04 06:25:11;;;;;;;56.80;23.45;;;;;;;6.77;59.25;100826.63;5070621;28;20059;-69
2021/03/04 06:27:39;;;;;;;50.33;23.33;;;;;;;6.64;59.47;100831.09;5067672;28;20045;-69
2021/03/04 06:30:09;;;;;;;54.60;23.45;;;;;;;7.01;58.91;100832.72;5068066;28;20050;-69
2021/03/04 06:32:36;;;;;;;53.38;22.25;;;;;;;7.45;57.98;100838.31;5069514;28;20054;-69
2021/03/04 06:35:10;;;;;;;55.53;24.40;;;;;;;7.61;56.81;100834.41;5069255;28;20041;-69
2021/03/04 06:37:41;;;;;;;62.90;25.58;;;;;;;7.96;56.43;100834.31;5065380;28;20032;-73
2021/03/04 06:40:21;;;;;;;63.88;27.67;;;;;;;8.14;55.88;100834.69;5070780;28;20036;-71
2021/03/04 06:42:48;;;;;;;51.63;23.23;;;;;;;8.52;54.53;100826.44;5067115;28;20052;-70
2021/03/04 06:45:35;;;;;;;60.13;27.10;;;;;;;9.01;53.33;100822.47;5073719;28;20045;-71
2021/03/04 06:48:11;;;;;;;67.75;25.98;;;;;;;9.45;52.22;100826.75;5061476;28;20024;-71
2021/03/04 06:50:38;;;;;;;62.38;26.25;;;;;;;9.67;51.27;100814.38;5071913;28;20136;-71
2021/03/04 06:53:14;;;;;;;93.38;36.45;;;;;;;9.86;50.98;100820.59;5061531;28;20032;-75
2021/03/04 06:56:06;;;;;;;83.47;33.63;;;;;;;10.10;50.36;100811.53;5063962;28;20406;-75
2021/03/04 06:58:33;;;;;;;55.10;24.40;;;;;;;10.07;50.98;100819.72;5058407;28;20136;-71
2021/03/04 07:01:08;;;;;;;60.85;25.23;;;;;;;10.36;50.28;100794.22;5064652;28;20031;-76
2021/03/04 07:03:49;;;;;;;67.57;27.38;;;;;;;10.54;49.97;100810.34;5062153;28;20052;-76
2021/03/04 07:06:16;;;;;;;57.60;24.42;;;;;;;10.88;50.07;100801.03;5063023;28;20116;-71
2021/03/04 07:08:44;;;;;;;55.92;22.67;;;;;;;11.08;49.62;100809.84;5064133;28;20091;-75
2021/03/04 07:11:11;;;;;;;51.75;22.75;;;;;;;11.31;49.08;100807.75;5065120;28;20315;-71
2021/03/04 07:13:39;;;;;;;56.10;22.50;;;;;;;11.40;48.85;100804.25;5061512;28;20032;-69
2021/03/04 07:16:09;;;;;;;53.88;23.23;;;;;;;11.57;48.34;100807.19;5071139;28;20024;-69
2021/03/04 07:18:43;;;;;;;52.35;22.88;;;;;;;11.62;48.84;100800.47;5066348;28;20036;-70
2021/03/04 07:21:11;;;;;;;;;;;;;;;11.32;49.51;100795.31;5057298;28;20096;-75
2021/03/04 07:23:41;;;;;;;40.38;18.75;;;;;;;10.81;51.54;100791.13;5097536;28;19912;-70
2021/03/04 07:26:10;;;;;;;46.58;21.85;;;;;;;10.50;53.37;100793.03;5065277;28;20195;-75
2021/03/04 07:28:37;;;;;;;44.67;20.83;;;;;;;10.31;54.94;100785.84;5057097;28;20036;-75
2021/03/04 07:31:04;;;;;;;42.45;19.85;;;;;;;10.00;55.57;100765.66;5067633;28;20032;-70
2021/03/04 07:33:31;;;;;;;47.03;22.10;;;;;;;10.10;55.83;100770.00;5070027;28;20040;-75
2021/03/04 07:35:57;;;;;;;46.63;20.67;;;;;;;10.27;55.78;100770.38;5067039;28;20086;-75
2021/03/04 07:38:27;;;;;;;51.00;22.75;;;;;;;10.48;55.50;100756.09;5068096;28;20088;-72
2021/03/04 07:41:09;;;;;;;48.53;22.20;;;;;;;10.35;54.75;100752.84;5070266;28;20036;-71
2021/03/04 07:43:50;;;;;;;50.72;23.42;;;;;;;10.57;54.41;100750.97;5067895;28;20050;-72
2021/03/04 07:46:28;;;;;;;50.58;23.48;;;;;;;10.57;54.63;100748.31;5064757;28;20334;-76
2021/03/04 07:48:55;;;;;;;53.90;23.83;;;;;;;10.76;54.78;100743.03;5067703;28;20254;-71
2021/03/04 07:51:20;;;;;;;48.88;24.13;;;;;;;11.07;53.30;100744.56;5069173;28;20021;-71
2021/03/04 07:53:47;;;;;;;54.58;25.02;;;;;;;10.96;54.01;100741.22;5065718;28;20065;-75
2021/03/04 07:56:29;;;;;;;53.00;23.75;;;;;;;11.46;52.01;100736.56;5070029;28;20373;-71
2021/03/04 07:59:06;;;;;;;51.83;23.75;;;;;;;11.55;52.90;100735.69;5065778;28;20061;-71
2021/03/04 08:01:31;;;;;;;48.47;22.40;;;;;;;10.70;55.32;100735.63;5065987;28;20036;-71
2021/03/04 08:03:57;;;;;;;52.53;23.83;;;;;;;11.10;54.92;100732.84;5074232;28;20245;-71
2021/03/04 08:06:23;;;;;;;57.40;23.75;;;;;;;11.36;53.39;100725.13;5070948;28;20042;-71
2021/03/04 08:08:49;;;;;;;49.95;23.88;;;;;;;11.53;53.35;100721.75;5073091;28;20040;-71
2021/03/04 08:11:30;;;;;;;52.30;25.05;;;;;;;11.84;51.83;100711.75;5070006;28;20043;-69
2021/03/04 08:13:56;;;;;;;52.58;24.05;;;;;;;12.15;51.27;100704.31;5071959;28;20044;-69
2021/03/04 08:16:22;;;;;;;49.38;23.83;;;;;;;12.31;49.97;100704.50;5071986;28;20181;-69
2021/03/04 08:18:58;;;;;;;57.10;25.33;;;;;;;12.21;51.05;100700.22;5070141;28;20081;-71
2021/03/04 08:21:24;;;;;;;50.58;23.73;;;;;;;11.97;51.36;100693.66;5070798;28;20061;-71
2021/03/04 08:23:51;;;;;;;61.20;26.85;;;;;;;11.94;51.69;100678.03;5073323;28;20047;-71
2021/03/04 08:26:23;;;;;;;58.42;27.00;;;;;;;11.91;52.00;100691.59;5070814;28;20318;-75
2021/03/04 08:28:49;;;;;;;54.65;25.58;;;;;;;12.01;51.81;100678.28;5069402;28;20029;-76
2021/03/04 08:31:15;;;;;;;54.55;25.38;;;;;;;12.47;50.55;100680.75;5071556;28;20037;-69
2021/03/04 08:33:41;;;;;;;61.92;25.33;;;;;;;12.84;49.87;100678.94;5074147;28;20349;-69
2021/03/04 08:36:07;;;;;;;51.80;24.92;;;;;;;12.80;50.36;100678.41;5068135;28;20021;-74
2021/03/04 08:38:40;;;;;;;50.80;25.20;;;;;;;12.37;51.43;100676.50;5073828;28;20033;-75
2021/03/04 08:41:05;;;;;;;52.67;24.30;;;;;;;12.28;52.05;100670.28;5070177;28;20088;-69
2021/03/04 08:43:31;;;;;;;49.70;24.25;;;;;;;12.28;52.20;100659.66;5071046;28;20094;-75
2021/03/04 08:46:02;;;;;;;50.83;24.13;;;;;;;12.22;51.70;100656.75;5073003;28;20036;-75
2021/03/04 08:48:28;;;;;;;59.85;24.38;;;;;;;12.51;51.50;100656.59;5071749;28;20048;-69
2021/03/04 08:51:00;;;;;;;49.47;22.42;;;;;;;12.86;50.33;100647.72;5073655;28;20038;-69
2021/03/04 08:53:28;;;;;;;51.33;24.55;;;;;;;12.97;50.02;100642.16;5066406;28;20025;-73
2021/03/04 08:55:59;;;;;;;51.33;24.35;;;;;;;13.07;49.50;100633.09;5072836;28;20030;-74
2021/03/04 08:58:26;;;;;;;54.10;23.42;;;;;;;12.71;49.50;100627.03;5068428;28;20029;-71
2021/03/04 09:00:56;;;;;;;54.03;23.98;;;;;;;12.77;49.60;100633.53;5072755;28;20041;-71
2021/03/04 09:03:23;;;;;;;46.80;23.08;;;;;;;13.03;48.95;100631.75;5070602;28;20109;-74
2021/03/04 09:05:49;;;;;;;51.13;23.65;;;;;;;13.15;47.42;100626.16;5074073;28;20075;-69
2021/03/04 09:08:17;;;;;;;47.97;23.42;;;;;;;13.28;47.50;100619.47;5066746;28;20099;-74
2021/03/04 09:10:50;;;;;;;47.22;23.90;;;;;;;12.81;49.21;100587.06;5073237;28;20099;-69
2021/03/04 09:13:23;;;;;;;51.10;24.52;;;;;;;13.10;50.51;100608.84;5068826;28;20025;-74
2021/03/04 09:15:54;;;;;;;56.37;25.60;;;;;;;13.09;50.02;100603.69;5072387;28;20067;-69
2021/03/04 09:18:21;;;;;;;48.45;23.63;;;;;;;12.61;50.39;100604.19;5068002;28;20063;-69
2021/03/04 09:20:48;;;;;;;44.03;22.58;;;;;;;12.79;49.17;100602.34;5074017;28;20067;-74
2021/03/04 09:23:14;;;;;;;49.35;24.55;;;;;;;12.83;49.89;100586.91;5069454;28;20016;-69
2021/03/04 09:25:40;;;;;;;48.35;24.40;;;;;;;13.42;47.08;100591.44;5067747;28;20062;-70
2021/03/04 09:28:17;;;;;;;46.67;23.10;;;;;;;13.30;48.01;100582.06;5065459;28;20028;-69
2021/03/04 09:30:42;;;;;;;44.38;21.90;;;;;;;12.89;48.36;100573.84;5069140;28;20234;-69
2021/03/04 09:33:22;;;;;;;53.88;24.20;;;;;;;12.90;48.41;100575.50;5068410;28;20040;-69
2021/03/04 09:36:07;;;;;;;42.72;19.35;;;;;;;13.11;45.94;100561.81;5064167;28;20065;-74
2021/03/04 09:38:34;;;;;;;39.53;20.15;;;;;;;13.29;45.83;100565.28;5069539;28;20036;-73
2021/03/04 09:41:15;;;;;;;36.83;18.67;;;;;;;13.39;43.95;100555.34;5068715;28;20036;-69
2021/03/04 09:43:51;;;;;;;41.75;19.20;;;;;;;13.35;43.51;100559.31;5058281;28;20051;-69
2021/03/04 09:46:38;;;;;;;43.10;20.23;;;;;;;13.15;45.76;100552.53;5065989;28;20353;-74
2021/03/04 09:49:12;;;;;;;37.40;18.27;;;;;;;13.15;44.37;100557.84;5066675;28;20020;-69
2021/03/04 09:51:39;;;;;;;40.80;19.60;;;;;;;12.84;46.18;100540.75;5058194;28;20029;-74
2021/03/04 09:54:06;;;;;;;36.13;17.83;;;;;;;12.68;45.02;100538.81;5068806;28;20282;-71
2021/03/04 09:56:32;;;;;;;35.95;18.48;;;;;;;12.56;45.07;100538.25;5065518;28;20029;-74
2021/03/04 09:58:58;;;;;;;42.17;20.10;;;;;;;12.50;46.50;100530.06;5066164;28;20071;-69
2021/03/04 10:01:30;;;;;;;39.50;19.30;;;;;;;12.58;45.85;100524.81;5064082;28;20079;-69
2021/03/04 10:04:06;;;;;;;38.95;18.55;;;;;;;12.65;45.05;100523.19;5068747;28;20039;-69
2021/03/04 10:06:33;;;;;;;36.13;17.45;;;;;;;12.83;44.07;100516.00;5066347;28;20286;-69
2021/03/04 10:08:59;;;;;;;35.88;18.10;;;;;;;12.92;43.71;100519.53;5064632;28;20103;-74
2021/03/04 10:11:27;;;;;;;41.63;17.67;;;;;;;12.95;43.18;100512.06;5066950;28;20295;-73
2021/03/04 10:13:52;;;;;;;36.45;16.83;;;;;;;12.99;43.15;100510.75;5067686;28;20222;-69
2021/03/04 10:16:18;;;;;;;32.03;17.02;;;;;;;12.98;42.68;100500.28;5064943;28;20029;-69
2021/03/04 10:18:45;;;;;;;35.08;18.35;;;;;;;13.21;44.17;100500.56;5069530;28;20308;-74
2021/03/04 10:21:12;;;;;;;37.88;17.88;;;;;;;13.09;44.06;100500.00;5067134;28;20215;-73
2021/03/04 10:23:37;;;;;;;30.55;17.27;;;;;;;13.16;44.20;100485.06;5069371;28;20370;-69
2021/03/04 10:26:03;;;;;;;36.22;16.98;;;;;;;13.25;44.32;100472.66;5060536;28;20044;-74
2021/03/04 10:28:29;;;;;;;33.22;17.98;;;;;;;13.31;44.33;100466.69;5068735;28;20029;-69
2021/03/04 10:30:55;;;;;;;36.13;18.15;;;;;;;13.40;43.33;100463.06;5071994;28;20096;-70
2021/03/04 10:33:20;;;;;;;44.35;19.75;;;;;;;13.53;44.34;100465.28;5068704;28;20206;-74
2021/03/04 10:35:46;;;;;;;38.50;17.00;;;;;;;13.57;42.41;100455.97;5072883;28;20043;-71
2021/03/04 10:38:11;;;;;;;36.92;18.60;;;;;;;13.30;44.11;100451.72;5067219;28;20013;-74
2021/03/04 10:40:36;;;;;;;33.22;17.38;;;;;;;13.38;43.06;100443.78;5073329;28;20033;-74
2021/03/04 10:43:02;;;;;;;41.05;17.90;;;;;;;13.52;43.43;100440.47;5068129;28;20111;-73
2021/03/04 10:45:27;;;;;;;37.78;17.77;;;;;;;13.56;41.89;100430.38;5070461;28;20045;-69
2021/03/04 10:47:53;;;;;;;40.00;18.92;;;;;;;13.56;43.16;100417.06;5069225;28;20365;-70
2021/03/04 10:50:21;;;;;;;41.30;18.67;;;;;;;13.71;43.04;100415.41;5069186;28;20032;-69
2021/03/04 10:52:47;;;;;;;41.15;17.52;;;;;;;13.63;43.18;100408.25;5066575;28;20126;-74
2021/03/04 10:55:13;;;;;;;39.05;19.10;;;;;;;13.40;43.20;100397.41;5071315;28;20048;-74
2021/03/04 10:57:39;;;;;;;28.52;15.27;;;;;;;13.59;41.62;100395.44;5067612;28;20028;-73
2021/03/04 11:00:10;;;;;;;32.67;15.93;;;;;;;13.50;41.68;100391.09;5071588;28;20036;-69
2021/03/04 11:02:35;;;;;;;30.88;15.73;;;;;;;13.27;42.95;100385.56;5067180;28;20114;-69
2021/03/04 11:05:01;;;;;;;31.27;15.68;;;;;;;13.33;42.36;100390.22;5072022;28;20036;-69
2021/03/04 11:07:27;;;;;;;31.17;15.25;;;;;;;13.24;42.36;100381.41;5068022;28;20037;-74
2021/03/04 11:09:53;;;;;;;31.00;15.95;;;;;;;13.50;41.83;100381.28;5069881;28;20219;-74
2021/03/04 11:12:19;;;;;;;36.65;15.15;;;;;;;13.64;41.37;100374.50;5067549;28;20050;-70
2021/03/04 11:14:44;;;;;;;29.85;15.73;;;;;;;13.67;40.88;100360.84;5072243;28;20029;-74
2021/03/04 11:17:10;;;;;;;31.55;13.95;;;;;;;13.58;41.79;100346.72;5067535;28;20043;-69
2021/03/04 11:19:36;;;;;;;31.20;14.75;;;;;;;13.66;41.08;100349.38;5066059;28;20028;-74